createdAt,value
2017-07-02T00:01:49.613Z,19.90
2017-07-02T00:04:17.377Z,19.90
2017-07-02T00:06:44.937Z,19.80
2017-07-02T00:09:12.497Z,19.50
2017-07-02T00:11:40.052Z,19.30
2017-07-02T00:14:07.566Z,19.20
2017-07-02T00:16:35.994Z,19.00
2017-07-02T00:19:03.547Z,19.00
2017-07-02T00:21:31.109Z,19.00
2017-07-02T00:23:58.669Z,18.80
2017-07-02T00:26:26.238Z,19.00
2017-07-02T00:28:53.790Z,19.20
2017-07-02T00:31:21.301Z,19.20
2017-07-02T00:33:49.618Z,18.80
2017-07-02T00:36:17.128Z,18.80
2017-07-02T00:38:44.738Z,18.90
2017-07-02T00:41:12.289Z,18.80
2017-07-02T00:43:39.844Z,18.70
2017-07-02T00:46:07.412Z,18.70
2017-07-02T00:48:34.965Z,18.60
2017-07-02T00:51:02.480Z,18.70
2017-07-02T00:53:30.013Z,18.70
2017-07-02T00:55:57.545Z,19.10
2017-07-02T00:58:25.057Z,19.30
2017-07-02T01:00:53.374Z,19.00
2017-07-02T01:03:20.932Z,19.00
2017-07-02T01:05:48.497Z,19.10
2017-07-02T01:08:16.065Z,19.10
2017-07-02T01:10:43.618Z,19.00
2017-07-02T01:13:11.169Z,18.90
2017-07-02T01:15:38.726Z,19.10
2017-07-02T01:18:06.260Z,18.90
2017-07-02T01:20:34.562Z,18.90
2017-07-02T01:23:02.125Z,18.90
2017-07-02T01:25:29.638Z,18.70
2017-07-02T01:27:57.244Z,18.90
2017-07-02T01:30:24.781Z,18.80
2017-07-02T01:32:52.361Z,18.90
2017-07-02T01:35:19.918Z,18.70
2017-07-02T01:37:47.481Z,18.60
2017-07-02T01:40:15.034Z,18.80
2017-07-02T01:42:42.573Z,19.20
2017-07-02T01:45:10.154Z,19.10
2017-07-02T01:47:37.713Z,18.90
2017-07-02T01:50:05.221Z,18.90
2017-07-02T01:52:32.833Z,19.00
2017-07-02T01:55:00.364Z,18.90
2017-07-02T01:57:27.947Z,18.90
2017-07-02T01:59:55.511Z,19.10
2017-07-02T02:02:34.945Z,19.00
2017-07-02T02:05:02.498Z,19.00
2017-07-02T02:07:30.058Z,18.80
2017-07-02T02:09:57.622Z,18.60
2017-07-02T02:12:25.133Z,18.50
2017-07-02T02:14:53.457Z,18.60
2017-07-02T02:17:21.017Z,18.60
2017-07-02T02:19:48.565Z,18.70
2017-07-02T02:22:16.126Z,18.50
2017-07-02T02:24:43.690Z,18.30
2017-07-02T02:27:11.249Z,18.30
2017-07-02T02:29:38.812Z,18.40
2017-07-02T02:32:06.469Z,18.20
2017-07-02T02:34:33.981Z,18.30
2017-07-02T02:37:01.597Z,18.40
2017-07-02T02:39:29.184Z,18.20
2017-07-02T02:41:56.689Z,18.20
2017-07-02T02:44:24.234Z,18.20
2017-07-02T02:46:51.752Z,18.10
2017-07-02T02:49:19.261Z,18.20
2017-07-02T02:51:46.777Z,18.20
2017-07-02T02:54:14.290Z,18.10
2017-07-02T02:56:41.853Z,18.10
2017-07-02T02:59:09.410Z,18.10
2017-07-02T03:01:36.969Z,18.10
2017-07-02T03:04:04.520Z,18.10
2017-07-02T03:06:32.089Z,18.20
2017-07-02T03:08:59.640Z,18.60
2017-07-02T03:11:27.204Z,18.60
2017-07-02T03:13:54.763Z,18.40
2017-07-02T03:16:22.322Z,18.20
2017-07-02T03:18:49.880Z,18.00
2017-07-02T03:21:17.441Z,17.90
2017-07-02T03:23:44.998Z,17.90
2017-07-02T03:26:12.505Z,18.00
2017-07-02T03:28:40.024Z,17.80
2017-07-02T03:31:07.573Z,17.80
2017-07-02T03:33:35.233Z,18.10
2017-07-02T03:36:02.793Z,18.10
2017-07-02T03:38:30.313Z,18.30
2017-07-02T03:40:58.601Z,18.40
2017-07-02T03:43:26.192Z,18.40
2017-07-02T03:45:53.745Z,18.30
2017-07-02T03:48:21.309Z,18.10
2017-07-02T03:50:48.861Z,18.00
2017-07-02T03:53:16.370Z,18.00
2017-07-02T03:55:43.876Z,18.20
2017-07-02T03:58:11.538Z,18.30
2017-07-02T04:00:39.101Z,18.40
2017-07-02T04:03:06.610Z,18.50
2017-07-02T04:05:34.901Z,18.90
2017-07-02T04:08:03.209Z,18.90
2017-07-02T04:10:30.761Z,18.90
2017-07-02T04:12:58.325Z,18.90
2017-07-02T04:15:25.833Z,18.80
2017-07-02T04:17:53.350Z,18.80
2017-07-02T04:20:20.868Z,18.50
2017-07-02T04:22:49.276Z,18.40
2017-07-02T04:25:16.830Z,18.40
2017-07-02T04:27:44.417Z,18.60
2017-07-02T04:30:11.949Z,18.60
2017-07-02T04:32:39.512Z,18.50
2017-07-02T04:35:07.071Z,18.50
2017-07-02T04:37:34.584Z,18.60
2017-07-02T04:40:02.866Z,18.70
2017-07-02T04:42:31.153Z,18.60
2017-07-02T04:44:58.734Z,18.50
2017-07-02T04:47:26.297Z,18.50
2017-07-02T04:49:53.857Z,18.60
2017-07-02T04:52:21.360Z,18.60
2017-07-02T04:54:48.873Z,18.80
2017-07-02T04:57:16.433Z,19.00
2017-07-02T04:59:43.973Z,19.20
2017-07-02T05:02:11.484Z,19.30
2017-07-02T05:04:38.993Z,19.30
2017-07-02T05:07:06.508Z,19.10
2017-07-02T05:09:34.149Z,19.00
2017-07-02T05:12:01.684Z,18.80
2017-07-02T05:14:29.232Z,19.10
2017-07-02T05:16:56.753Z,19.10
2017-07-02T05:19:25.077Z,19.00
2017-07-02T05:21:52.636Z,18.90
2017-07-02T05:24:20.176Z,19.00
2017-07-02T05:26:47.762Z,18.90
2017-07-02T05:29:15.284Z,18.80
2017-07-02T05:31:42.871Z,18.80
2017-07-02T05:34:10.434Z,18.80
2017-07-02T05:36:37.985Z,18.90
2017-07-02T05:39:05.545Z,18.90
2017-07-02T05:41:33.059Z,18.90
2017-07-02T05:44:01.344Z,19.00
2017-07-02T05:46:29.624Z,18.90
2017-07-02T05:48:58.034Z,19.10
2017-07-02T05:51:25.593Z,19.00
2017-07-02T05:53:53.201Z,18.90
2017-07-02T05:56:20.814Z,19.00
2017-07-02T05:58:48.370Z,18.80
2017-07-02T06:01:15.929Z,18.90
2017-07-02T06:03:43.483Z,18.80
2017-07-02T06:06:11.047Z,18.90
2017-07-02T06:08:38.607Z,19.10
2017-07-02T06:11:06.169Z,19.00
2017-07-02T06:13:33.726Z,19.10
2017-07-02T06:16:01.284Z,19.10
2017-07-02T06:18:28.842Z,19.20
2017-07-02T06:20:56.400Z,19.10
2017-07-02T06:23:23.954Z,19.10
2017-07-02T06:25:51.489Z,19.30
2017-07-02T06:28:19.081Z,19.50
2017-07-02T06:30:46.593Z,19.60
2017-07-02T06:33:14.913Z,19.70
2017-07-02T06:35:42.469Z,19.70
2017-07-02T06:38:10.031Z,19.80
2017-07-02T06:40:37.589Z,19.70
2017-07-02T06:43:05.147Z,19.80
2017-07-02T06:45:32.705Z,19.90
2017-07-02T06:48:00.265Z,19.60
2017-07-02T06:50:27.823Z,19.80
2017-07-02T06:52:55.380Z,19.90
2017-07-02T06:55:22.941Z,19.80
2017-07-02T06:57:50.501Z,20.10
2017-07-02T07:00:18.161Z,20.20
2017-07-02T07:02:45.780Z,20.40
2017-07-02T07:05:14.098Z,20.60
2017-07-02T07:07:41.655Z,20.50
2017-07-02T07:10:09.214Z,20.80
2017-07-02T07:12:36.776Z,20.80
2017-07-02T07:15:04.441Z,21.00
2017-07-02T07:17:31.988Z,21.10
2017-07-02T07:19:59.563Z,21.30
2017-07-02T07:22:27.110Z,21.40
2017-07-02T07:24:54.678Z,21.40
2017-07-02T07:27:22.327Z,21.60
2017-07-02T07:29:49.890Z,21.70
2017-07-02T07:32:17.448Z,21.50
2017-07-02T07:34:44.965Z,21.40
2017-07-02T07:37:13.381Z,21.30
2017-07-02T07:39:40.943Z,21.30
2017-07-02T07:42:08.502Z,21.40
2017-07-02T07:44:36.062Z,21.40
2017-07-02T07:47:03.625Z,21.60
2017-07-02T07:49:31.181Z,21.70
2017-07-02T07:51:58.721Z,22.10
2017-07-02T07:54:26.298Z,22.30
2017-07-02T07:56:53.817Z,22.20
2017-07-02T07:59:22.101Z,22.00
2017-07-02T08:01:50.408Z,22.20
2017-07-02T08:04:17.970Z,22.20
2017-07-02T08:06:45.525Z,22.50
2017-07-02T08:09:13.087Z,22.60
2017-07-02T08:11:40.604Z,22.40
2017-07-02T08:14:08.920Z,22.40
2017-07-02T08:16:36.454Z,22.30
2017-07-02T08:19:03.973Z,22.50
2017-07-02T08:21:31.594Z,22.60
2017-07-02T08:23:59.121Z,22.60
2017-07-02T08:26:27.429Z,22.40
2017-07-02T08:28:54.988Z,22.30
2017-07-02T08:31:22.593Z,22.40
2017-07-02T08:33:50.210Z,22.50
2017-07-02T08:36:18.697Z,22.40
2017-07-02T08:38:46.988Z,22.80
2017-07-02T08:41:15.209Z,23.20
2017-07-02T08:43:42.800Z,23.40
2017-07-02T08:46:10.361Z,23.70
2017-07-02T08:48:38.765Z,23.70
2017-07-02T08:51:06.297Z,23.60
2017-07-02T08:53:33.853Z,23.00
2017-07-02T08:56:01.372Z,22.70
2017-07-02T08:58:29.689Z,22.60
2017-07-02T09:00:57.202Z,22.60
2017-07-02T09:03:25.626Z,22.70
2017-07-02T09:05:53.189Z,22.70
2017-07-02T09:08:20.738Z,22.70
2017-07-02T09:10:48.302Z,22.90
2017-07-02T09:13:15.861Z,22.90
2017-07-02T09:15:43.381Z,22.90
2017-07-02T09:18:11.800Z,23.40
2017-07-02T09:20:39.353Z,23.30
2017-07-02T09:23:06.911Z,23.80
2017-07-02T09:25:34.474Z,24.00
2017-07-02T09:28:02.032Z,23.90
2017-07-02T09:30:29.592Z,24.00
2017-07-02T09:32:57.151Z,24.20
2017-07-02T09:35:24.709Z,24.60
2017-07-02T09:37:52.269Z,25.10
2017-07-02T09:40:19.821Z,24.90
2017-07-02T09:42:47.594Z,24.40
2017-07-02T09:45:15.153Z,23.70
2017-07-02T09:47:42.706Z,23.30
2017-07-02T09:50:10.281Z,23.40
2017-07-02T09:52:37.797Z,23.50
2017-07-02T09:55:06.228Z,24.30
2017-07-02T09:57:33.744Z,24.30
2017-07-02T10:00:01.323Z,24.40
2017-07-02T10:02:28.836Z,24.90
2017-07-02T10:04:57.152Z,25.20
2017-07-02T10:07:24.740Z,25.20
2017-07-02T10:09:52.256Z,25.30
2017-07-02T10:12:19.834Z,25.30
2017-07-02T10:14:47.396Z,25.70
2017-07-02T10:17:14.953Z,26.20
2017-07-02T10:19:42.610Z,26.50
2017-07-02T10:22:10.171Z,26.10
2017-07-02T10:24:37.731Z,26.40
2017-07-02T10:27:05.294Z,26.40
2017-07-02T10:29:32.841Z,26.40
2017-07-02T10:32:00.381Z,26.70
2017-07-02T10:34:27.967Z,27.00
2017-07-02T10:36:55.525Z,27.10
2017-07-02T10:39:23.085Z,27.00
2017-07-02T10:41:50.604Z,26.90
2017-07-02T10:44:19.014Z,26.50
2017-07-02T10:46:46.539Z,26.40
2017-07-02T10:49:14.857Z,26.60
2017-07-02T10:51:42.417Z,26.60
2017-07-02T10:54:09.969Z,26.60
2017-07-02T10:56:37.524Z,26.90
2017-07-02T10:59:05.093Z,27.30
2017-07-02T11:01:32.652Z,27.30
2017-07-02T11:04:00.207Z,27.70
2017-07-02T11:06:27.769Z,28.20
2017-07-02T11:08:55.330Z,28.10
2017-07-02T11:11:22.881Z,27.80
2017-07-02T11:13:50.445Z,27.80
2017-07-02T11:16:18.004Z,27.70
2017-07-02T11:18:45.520Z,27.30
2017-07-02T11:21:13.834Z,26.50
2017-07-02T11:23:41.409Z,26.40
2017-07-02T11:26:08.920Z,26.00
2017-07-02T11:28:37.234Z,26.30
2017-07-02T11:31:04.793Z,26.30
2017-07-02T11:33:32.453Z,26.50
2017-07-02T11:36:00.012Z,27.20
2017-07-02T11:38:27.576Z,27.60
2017-07-02T11:40:55.130Z,27.10
2017-07-02T11:43:22.682Z,26.20
2017-07-02T11:45:50.224Z,25.90
2017-07-02T11:48:17.810Z,25.90
2017-07-02T11:50:45.328Z,26.10
2017-07-02T11:53:13.637Z,27.00
2017-07-02T11:55:41.201Z,27.00
2017-07-02T11:58:08.740Z,27.60
2017-07-02T12:00:36.252Z,27.70
2017-07-02T12:03:03.877Z,27.30
2017-07-02T12:05:31.430Z,27.20
2017-07-02T12:07:58.941Z,27.50
2017-07-02T12:10:26.480Z,27.70
2017-07-02T12:12:54.014Z,27.70
2017-07-02T12:15:21.522Z,27.60
2017-07-02T12:17:49.033Z,27.60
2017-07-02T12:20:16.585Z,27.50
2017-07-02T12:22:44.147Z,27.30
2017-07-02T12:25:11.704Z,27.50
2017-07-02T12:27:39.264Z,27.70
2017-07-02T12:30:06.769Z,27.70
2017-07-02T12:32:34.387Z,27.70
2017-07-02T12:35:02.053Z,27.30
2017-07-02T12:37:29.600Z,27.10
2017-07-02T12:39:57.115Z,27.10
2017-07-02T12:42:25.438Z,26.80
2017-07-02T12:44:52.997Z,26.80
2017-07-02T12:47:20.552Z,26.70
2017-07-02T12:49:48.113Z,26.90
2017-07-02T12:52:15.678Z,27.20
2017-07-02T12:54:43.186Z,27.40
2017-07-02T12:57:11.509Z,28.10
2017-07-02T12:59:39.171Z,28.10
2017-07-02T13:02:06.738Z,28.30
2017-07-02T13:04:34.253Z,28.50
2017-07-02T13:07:02.565Z,28.70
2017-07-02T13:09:30.290Z,28.60
2017-07-02T13:11:58.702Z,29.10
2017-07-02T13:14:26.261Z,29.00
2017-07-02T13:16:53.815Z,28.90
2017-07-02T13:19:21.384Z,28.90
2017-07-02T13:21:48.897Z,28.70
2017-07-02T13:24:17.253Z,29.40
2017-07-02T13:26:44.771Z,29.50
2017-07-02T13:29:12.277Z,29.80
2017-07-02T13:31:39.891Z,29.70
2017-07-02T13:34:07.462Z,29.60
2017-07-02T13:36:35.105Z,29.00
2017-07-02T13:39:02.616Z,28.60
2017-07-02T13:41:30.238Z,28.40
2017-07-02T13:43:57.790Z,27.80
2017-07-02T13:46:25.341Z,27.50
2017-07-02T13:48:52.907Z,27.30
2017-07-02T13:51:20.466Z,27.40
2017-07-02T13:53:48.023Z,27.40
2017-07-02T13:56:15.581Z,27.00
2017-07-02T13:58:43.141Z,26.50
2017-07-02T14:01:10.713Z,26.10
2017-07-02T14:03:38.258Z,25.80
2017-07-02T14:06:05.817Z,25.50
2017-07-02T14:08:33.330Z,25.50
2017-07-02T14:11:01.613Z,25.60
2017-07-02T14:13:29.957Z,26.00
2017-07-02T14:15:57.489Z,26.00
2017-07-02T14:18:25.045Z,26.10
2017-07-02T14:20:52.708Z,26.40
2017-07-02T14:23:20.323Z,26.40
2017-07-02T14:25:48.648Z,26.20
2017-07-02T14:28:16.203Z,26.20
2017-07-02T14:30:43.781Z,26.30
2017-07-02T14:33:11.330Z,26.40
2017-07-02T14:35:38.917Z,26.50
2017-07-02T14:38:06.549Z,26.40
2017-07-02T14:40:34.101Z,26.10
2017-07-02T14:43:01.767Z,26.10
2017-07-02T14:45:30.141Z,26.00
2017-07-02T14:47:57.650Z,26.00
2017-07-02T14:50:25.740Z,25.80
2017-07-02T14:52:54.428Z,25.20
2017-07-02T14:55:22.031Z,25.20
2017-07-02T14:57:49.600Z,25.20
2017-07-02T15:00:17.339Z,25.60
2017-07-02T15:02:44.901Z,25.50
2017-07-02T15:05:12.429Z,25.70
2017-07-02T15:07:39.945Z,25.90
2017-07-02T15:10:07.452Z,25.80
2017-07-02T15:12:35.032Z,25.30
2017-07-02T15:15:02.610Z,24.70
2017-07-02T15:17:30.147Z,24.90
2017-07-02T15:19:57.703Z,25.50
2017-07-02T15:22:25.213Z,26.20
2017-07-02T15:24:52.753Z,26.60
2017-07-02T15:27:20.277Z,26.90
2017-07-02T15:29:47.840Z,26.60
2017-07-02T15:32:15.385Z,26.80
2017-07-02T15:34:42.906Z,26.50
2017-07-02T15:37:10.421Z,26.00
2017-07-02T15:39:38.081Z,26.30
2017-07-02T15:42:05.637Z,26.80
2017-07-02T15:44:33.157Z,26.60
2017-07-02T15:47:01.467Z,26.50
2017-07-02T15:49:29.032Z,26.50
2017-07-02T15:51:56.594Z,26.40
2017-07-02T15:54:24.281Z,26.30
2017-07-02T15:56:51.809Z,26.10
2017-07-02T15:59:19.367Z,26.10
2017-07-02T16:01:47.034Z,26.20
2017-07-02T16:04:14.590Z,26.40
2017-07-02T16:06:42.149Z,26.60
2017-07-02T16:09:09.661Z,26.70
2017-07-02T16:11:37.981Z,27.00
2017-07-02T16:14:05.538Z,27.00
2017-07-02T16:16:33.281Z,27.30
2017-07-02T16:19:00.862Z,27.00
2017-07-02T16:21:28.424Z,26.80
2017-07-02T16:23:56.190Z,26.70
2017-07-02T16:26:23.756Z,26.60
2017-07-02T16:28:51.510Z,26.40
2017-07-02T16:31:19.066Z,26.40
2017-07-02T16:33:46.629Z,26.50
2017-07-02T16:36:14.145Z,26.40
2017-07-02T16:38:42.562Z,25.90
2017-07-02T16:41:10.138Z,25.90
2017-07-02T16:43:37.681Z,26.20
2017-07-02T16:46:05.246Z,26.40
2017-07-02T16:48:32.801Z,26.70
2017-07-02T16:51:00.346Z,27.00
2017-07-02T16:53:27.918Z,27.10
2017-07-02T16:55:55.477Z,27.30
2017-07-02T16:58:22.998Z,27.30
2017-07-02T17:00:51.309Z,27.30
2017-07-02T17:03:18.869Z,27.30
2017-07-02T17:05:46.422Z,27.30
2017-07-02T17:08:13.933Z,27.10
2017-07-02T17:10:41.445Z,26.90
2017-07-02T17:13:08.953Z,26.80
2017-07-02T17:15:37.256Z,26.50
2017-07-02T17:18:04.772Z,26.40
2017-07-02T17:20:32.398Z,26.20
2017-07-02T17:22:59.953Z,26.10
2017-07-02T17:25:27.519Z,26.10
2017-07-02T17:27:55.058Z,25.80
2017-07-02T17:30:22.735Z,25.80
2017-07-02T17:32:50.293Z,25.70
2017-07-02T17:35:17.805Z,25.70
2017-07-02T17:37:46.126Z,25.30
2017-07-02T17:40:13.685Z,25.30
2017-07-02T17:42:41.245Z,25.30
2017-07-02T17:45:08.805Z,25.20
2017-07-02T17:47:36.329Z,25.00
2017-07-02T17:50:04.742Z,24.90
2017-07-02T17:52:32.302Z,24.90
2017-07-02T17:54:59.862Z,24.70
2017-07-02T17:57:27.729Z,24.70
2017-07-02T17:59:55.245Z,24.70
2017-07-02T18:02:23.549Z,24.60
2017-07-02T18:04:51.221Z,24.70
2017-07-02T18:07:18.780Z,24.50
2017-07-02T18:09:46.432Z,24.30
2017-07-02T18:12:13.963Z,24.00
2017-07-02T18:14:42.253Z,24.10
2017-07-02T18:17:09.834Z,24.00
2017-07-02T18:19:37.349Z,24.20
2017-07-02T18:22:05.793Z,23.90
2017-07-02T18:24:33.314Z,23.90
2017-07-02T18:27:00.833Z,23.90
2017-07-02T18:29:28.465Z,23.90
2017-07-02T18:31:55.981Z,23.90
2017-07-02T18:34:23.875Z,23.70
2017-07-02T18:36:51.513Z,23.70
2017-07-02T18:39:19.098Z,23.40
2017-07-02T18:41:46.858Z,23.40
2017-07-02T18:44:14.364Z,23.50
2017-07-02T18:46:41.877Z,23.30
2017-07-02T18:49:09.427Z,23.30
2017-07-02T18:51:36.989Z,23.20
2017-07-02T18:54:04.548Z,23.40
2017-07-02T18:56:32.064Z,23.20
2017-07-02T18:59:00.383Z,23.00
2017-07-02T19:01:27.926Z,23.10
2017-07-02T19:03:55.505Z,23.20
2017-07-02T19:06:23.168Z,23.20
2017-07-02T19:08:50.725Z,23.20
2017-07-02T19:11:18.281Z,23.10
2017-07-02T19:13:45.840Z,22.90
2017-07-02T19:16:16.439Z,23.00
2017-07-02T19:18:44.238Z,22.90
2017-07-02T19:21:11.759Z,22.60
2017-07-02T19:23:40.073Z,22.50
2017-07-02T19:26:07.631Z,22.50
2017-07-02T19:28:35.145Z,22.50
2017-07-02T19:31:03.453Z,22.40
2017-07-02T19:33:31.024Z,22.40
2017-07-02T19:35:58.889Z,22.10
2017-07-02T19:38:26.406Z,22.10
2017-07-02T19:40:54.724Z,21.90
2017-07-02T19:43:22.284Z,22.00
2017-07-02T19:45:49.843Z,22.10
2017-07-02T19:48:17.400Z,22.30
2017-07-02T19:50:44.962Z,22.20
2017-07-02T19:53:12.519Z,22.30
2017-07-02T19:55:40.056Z,22.60
2017-07-02T19:58:07.635Z,22.70
2017-07-02T20:00:35.200Z,22.80
2017-07-02T20:03:02.856Z,22.80
2017-07-02T20:05:30.383Z,22.60
2017-07-02T20:07:57.981Z,22.60
2017-07-02T20:10:25.641Z,22.70
2017-07-02T20:12:53.165Z,22.90
2017-07-02T20:15:20.689Z,22.90
2017-07-02T20:17:48.207Z,22.90
2017-07-02T20:20:15.772Z,22.80
2017-07-02T20:22:43.325Z,22.80
2017-07-02T20:25:10.885Z,22.70
2017-07-02T20:27:38.445Z,22.80
2017-07-02T20:30:06.008Z,22.80
2017-07-02T20:32:33.663Z,22.90
2017-07-02T20:35:01.224Z,22.90
2017-07-02T20:37:28.785Z,22.90
2017-07-02T20:39:56.339Z,22.70
2017-07-02T20:42:23.901Z,22.60
2017-07-02T20:44:51.458Z,22.40
2017-07-02T20:47:19.013Z,21.90
2017-07-02T20:49:46.570Z,21.60
2017-07-02T20:52:14.133Z,21.30
2017-07-02T20:54:41.692Z,21.10
2017-07-02T20:57:09.252Z,21.10
2017-07-02T20:59:36.821Z,21.20
2017-07-02T21:02:04.369Z,21.20
2017-07-02T21:04:31.894Z,21.30
2017-07-02T21:07:00.181Z,21.20
2017-07-02T21:09:27.792Z,21.20
2017-07-02T21:11:55.425Z,21.30
2017-07-02T21:14:22.988Z,21.30
2017-07-02T21:16:50.541Z,20.80
2017-07-02T21:19:18.101Z,20.80
2017-07-02T21:21:45.637Z,20.80
2017-07-02T21:24:13.153Z,20.90
2017-07-02T21:26:40.773Z,20.80
2017-07-02T21:29:08.338Z,20.90
2017-07-02T21:31:35.849Z,20.80
2017-07-02T21:34:04.202Z,20.60
2017-07-02T21:36:31.754Z,20.10
2017-07-02T21:38:59.285Z,20.00
2017-07-02T21:41:26.851Z,20.00
2017-07-02T21:43:54.402Z,19.90
2017-07-02T21:46:21.965Z,19.80
2017-07-02T21:48:49.477Z,20.10
2017-07-02T21:51:16.984Z,20.10
2017-07-02T21:53:44.549Z,19.90
2017-07-02T21:56:12.097Z,20.00
2017-07-02T21:58:39.654Z,19.80
2017-07-02T22:01:07.217Z,19.70
2017-07-02T22:03:34.781Z,19.80
2017-07-02T22:06:02.332Z,19.80
2017-07-02T22:08:29.893Z,19.70
2017-07-02T22:10:57.455Z,19.50
2017-07-02T22:13:25.009Z,19.60
2017-07-02T22:15:52.571Z,19.50
2017-07-02T22:18:20.125Z,19.30
2017-07-02T22:20:47.697Z,19.50
2017-07-02T22:23:15.248Z,19.40
2017-07-02T22:25:42.805Z,19.40
2017-07-02T22:28:10.363Z,19.30
2017-07-02T22:30:37.882Z,19.50
2017-07-02T22:33:06.196Z,20.10
2017-07-02T22:35:33.756Z,20.10
2017-07-02T22:38:01.278Z,20.00
2017-07-02T22:40:29.580Z,19.70
2017-07-02T22:42:57.097Z,19.70
2017-07-02T22:45:24.610Z,19.60
2017-07-02T22:47:52.149Z,19.60
2017-07-02T22:50:19.723Z,19.50
2017-07-02T22:52:47.284Z,19.40
2017-07-02T22:55:14.838Z,19.30
2017-07-02T22:57:42.405Z,19.30
2017-07-02T23:00:10.062Z,19.40
2017-07-02T23:02:37.621Z,19.60
2017-07-02T23:05:05.174Z,19.40
2017-07-02T23:07:32.737Z,19.60
2017-07-02T23:10:00.316Z,19.80
2017-07-02T23:12:27.951Z,19.90
2017-07-02T23:14:55.509Z,19.90
2017-07-02T23:17:23.085Z,19.70
2017-07-02T23:19:50.601Z,19.70
2017-07-02T23:22:18.880Z,20.00
2017-07-02T23:24:47.281Z,20.20
2017-07-02T23:27:14.849Z,20.20
2017-07-02T23:29:42.408Z,20.50
2017-07-02T23:32:09.971Z,20.60
2017-07-02T23:34:37.484Z,20.80
2017-07-02T23:37:05.789Z,20.60
2017-07-02T23:39:33.361Z,20.60
2017-07-02T23:42:00.922Z,20.70
2017-07-02T23:44:28.476Z,20.80
2017-07-02T23:46:55.994Z,20.80
2017-07-02T23:49:24.413Z,20.50
2017-07-02T23:51:51.973Z,20.50
2017-07-02T23:54:19.532Z,20.30
2017-07-02T23:56:47.089Z,20.30
2017-07-02T23:59:14.648Z,20.10
